Time;durP1;ratioP1;P1;durP2;ratioP2;P2;SDS_P1;SDS_P2;PMS_P1;PMS_P2;Temp;Humidity;BMP_temperature;BMP_pressure;BME280_temperature;BME280_humidity;BME280_pressure;Samples;Min_cycle;Max_cycle;Signal;HPM_P1;HPM_P2
2023/02/11 00:01:08;;;;;;;;;;;7.80;87.50;;;6.72;71.84;102373.13;5009763;28;19925;-79
2023/02/11 00:03:37;;;;;;;;;;;7.80;87.40;;;6.71;71.85;102373.28;5009557;28;19941;-79
2023/02/11 00:06:07;;;;;;;;;;;7.80;87.40;;;6.76;71.77;102383.47;5008242;28;19957;-79
2023/02/11 00:08:34;;;;;;;;;;;7.90;87.30;;;6.80;71.47;102372.44;5006538;28;19925;-79
2023/02/11 00:11:01;;;;;;;;;;;7.90;87.10;;;6.78;71.24;102370.91;5005745;28;19940;-79
2023/02/11 00:13:29;;;;;;;;;;;7.90;87.10;;;6.72;71.49;102367.81;5009405;28;20289;-79
2023/02/11 00:15:56;;;;;;;;;;;7.90;87.10;;;6.74;71.60;102364.22;5006416;28;19930;-79
2023/02/11 00:18:23;;;;;;;;;;;7.80;87.10;;;6.71;71.39;102355.56;5009614;28;20386;-78
2023/02/11 00:20:52;;;;;;;;;;;7.80;87.00;;;6.74;71.48;102354.44;5009805;28;20402;-79
2023/02/11 00:23:19;;;;;;;;;;;7.80;86.90;;;6.77;71.56;102348.00;5009195;28;19940;-78
2023/02/11 00:25:46;;;;;;;;;;;7.80;87.00;;;6.78;71.07;102352.34;5009113;28;20416;-79
2023/02/11 00:28:13;;;;;;;;;;;7.90;86.90;;;6.80;71.18;102355.69;5001289;28;19925;-78
2023/02/11 00:30:40;;;;;;;;;;;7.80;87.00;;;6.81;71.34;102360.84;5009121;28;20024;-79
2023/02/11 00:33:08;;;;;;;;;;;7.90;86.90;;;6.83;71.01;102358.06;5009382;28;19925;-78
2023/02/11 00:35:37;;;;;;;;;;;7.90;86.70;;;6.82;71.03;102345.78;5008515;28;20664;-78
2023/02/11 00:38:05;;;;;;;;;;;8.00;86.70;;;6.84;70.64;102339.38;5006325;28;19930;-79
2023/02/11 00:40:32;;;;;;;;;;;7.90;86.70;;;6.87;70.71;102338.25;5017054;28;20377;-79
2023/02/11 00:42:59;;;;;;;;;;;7.90;86.50;;;6.87;70.94;102332.94;5004073;28;19929;-79
2023/02/11 00:45:27;;;;;;;;;;;8.10;86.80;;;6.89;70.72;102338.94;5009621;28;20389;-79
2023/02/11 00:47:55;;;;;;;;;;;8.00;86.60;;;6.88;70.71;102346.06;5001270;28;19969;-79
2023/02/11 00:50:22;;;;;;;;;;;8.00;86.70;;;6.83;71.08;102345.66;5021397;28;20649;-79
2023/02/11 00:52:49;;;;;;;;;;;8.00;86.80;;;6.82;71.11;102340.47;5023116;28;20455;-79
2023/02/11 00:55:17;;;;;;;;;;;7.90;86.90;;;6.81;71.50;102337.00;5006737;28;20487;-79
2023/02/11 00:57:44;;;;;;;;;;;7.90;87.00;;;6.79;71.47;102333.66;5002105;28;19948;-79
2023/02/11 01:00:13;;;;;;;;;;;7.90;87.10;;;6.80;71.35;102330.03;5008154;28;19937;-79
2023/02/11 01:02:41;;;;;;;;;;;7.90;87.10;;;6.82;71.44;102330.69;5006184;28;19929;-78
2023/02/11 01:05:09;;;;;;;;;;;7.90;87.10;;;6.82;71.25;102329.88;5007825;28;20468;-79
2023/02/11 01:07:36;;;;;;;;;;;7.90;87.00;;;6.82;71.57;102340.47;5006736;28;19934;-79
2023/02/11 01:10:03;;;;;;;;;;;7.90;86.90;;;6.81;71.58;102341.47;5009656;28;19940;-78
2023/02/11 01:12:32;;;;;;;;;;;7.90;87.00;;;6.82;71.64;102329.88;5002924;28;19933;-79
2023/02/11 01:14:59;;;;;;;;;;;7.90;87.00;;;6.83;71.25;102335.06;5022538;28;20409;-79
2023/02/11 01:17:26;;;;;;;;;;;7.90;86.90;;;6.86;71.24;102341.88;5010752;28;19926;-79
2023/02/11 01:19:53;;;;;;;;;;;8.00;86.90;;;6.85;71.20;102341.03;5012287;28;19937;-79
2023/02/11 01:22:19;;;;;;;;;;;8.00;86.90;;;6.85;71.46;102354.31;5011280;28;20028;-79
2023/02/11 01:24:47;;;;;;;;;;;7.90;87.10;;;6.86;71.45;102347.19;5011726;28;20028;-79
2023/02/11 01:27:14;;;;;;;;;;;7.90;87.00;;;6.86;71.28;102349.81;5005265;28;19926;-79
2023/02/11 01:29:42;;;;;;;;;;;7.90;87.10;;;6.89;71.31;102354.88;5007441;28;19941;-79
2023/02/11 01:32:09;;;;;;;;;;;8.00;87.10;;;6.89;71.07;102353.03;5000778;28;19930;-78
2023/02/11 01:34:36;;;;;;;;;;;8.00;87.10;;;6.91;71.16;102355.56;5006523;28;19933;-79
2023/02/11 01:37:05;;;;;;;;;;;8.00;87.00;;;6.90;71.10;102365.31;5005730;28;19930;-79
2023/02/11 01:39:33;;;;;;;;;;;8.00;87.00;;;6.90;71.36;102365.31;5009858;28;20012;-79
2023/02/11 01:42:01;;;;;;;;;;;8.00;87.10;;;6.91;71.37;102363.50;5011163;28;20296;-79
2023/02/11 01:44:29;;;;;;;;;;;8.00;87.30;;;6.91;71.52;102359.03;5011127;28;19930;-79
2023/02/11 01:46:58;;;;;;;;;;;8.00;87.10;;;6.88;71.33;102350.50;5005404;28;19956;-79
2023/02/11 01:49:27;;;;;;;;;;;8.00;87.10;;;6.85;71.43;102346.34;5011483;28;19956;-79
2023/02/11 01:51:58;;;;;;;;;;;8.00;87.30;;;6.80;71.94;102337.97;5011876;28;19925;-79
2023/02/11 01:57:22;;;;;;;;;;;7.90;87.30;;;6.82;71.84;102335.16;5013516;28;19925;-79
2023/02/11 01:59:57;;;;;;;;;;;8.00;87.30;;;6.82;71.97;102325.41;5006245;28;19933;-82
2023/02/11 02:02:30;;;;;;;;;;;7.90;87.30;;;6.79;71.93;102328.34;5008438;28;20018;-78
2023/02/11 02:05:02;;;;;;;;;;;7.90;87.30;;;6.83;71.80;102332.41;5008160;28;19933;-78
2023/02/11 02:07:33;;;;;;;;;;;7.90;87.40;;;6.84;71.88;102336.72;5010978;28;20297;-79
2023/02/11 02:10:04;;;;;;;;;;;7.90;87.30;;;6.86;71.74;102332.09;5009776;28;19984;-79
2023/02/11 02:12:31;;;;;;;;;;;8.00;87.20;;;6.88;71.28;102329.28;5009838;28;20020;-79
2023/02/11 02:15:21;;;;;;;;;;;8.00;87.10;;;6.87;71.46;102336.41;5026557;28;20404;-78
2023/02/11 02:17:56;;;;;;;;;;;8.00;87.30;;;6.88;71.63;102331.94;5003878;28;19933;-79
2023/02/11 02:21:01;;;;;;;;;;;8.00;87.40;;;6.87;71.75;102322.31;5013002;28;20428;-78
2023/02/11 02:23:35;;;;;;;;;;;8.00;87.30;;;6.88;71.62;102316.03;5007154;28;19971;-79
2023/02/11 02:26:47;;;;;;;;;;;8.00;87.30;;;6.88;71.76;102300.13;5005345;28;19934;-78
2023/02/11 02:29:56;;;;;;;;;;;8.00;87.30;;;6.86;71.87;102288.84;4978549;28;19926;-79
2023/02/11 02:32:36;;;;;;;;;;;8.00;87.40;;;6.84;71.96;102293.47;4993731;28;19952;-79
2023/02/11 02:35:10;;;;;;;;;;;7.90;87.50;;;6.81;72.41;102297.22;5011214;28;19933;-79
2023/02/11 02:37:41;;;;;;;;;;;7.90;87.70;;;6.80;72.42;102298.19;5010655;28;19952;-79
2023/02/11 02:40:12;;;;;;;;;;;7.90;87.80;;;6.81;72.50;102296.38;5008448;28;19960;-79
2023/02/11 02:42:40;;;;;;;;;;;7.90;87.90;;;6.79;72.33;102287.75;5011224;28;19932;-79
2023/02/11 02:45:09;;;;;;;;;;;7.90;87.90;;;6.78;72.50;102291.34;5020488;28;20400;-79
2023/02/11 02:47:37;;;;;;;;;;;7.90;87.90;;;6.76;72.70;102286.19;4999184;28;19933;-79
2023/02/11 02:50:05;;;;;;;;;;;7.90;88.10;;;6.73;73.25;102294.41;5009937;28;19929;-79
2023/02/11 02:52:35;;;;;;;;;;;7.80;88.10;;;6.74;73.12;102285.50;5010783;28;19929;-79
2023/02/11 02:55:23;;;;;;;;;;;7.90;88.30;;;6.78;72.99;102280.75;5011885;28;19956;-79
2023/02/11 02:58:07;;;;;;;;;;;7.90;88.30;;;6.81;72.70;102280.47;5009038;28;20032;-79
2023/02/11 03:00:37;;;;;;;;;;;7.90;88.10;;;6.79;72.69;102280.63;5007387;28;20313;-78
2023/02/11 03:03:15;;;;;;;;;;;7.90;88.00;;;6.83;72.29;102278.50;5006370;28;19933;-79
2023/02/11 03:05:49;;;;;;;;;;;7.90;88.00;;;6.86;72.49;102267.63;5002583;28;19932;-79
2023/02/11 03:08:18;;;;;;;;;;;7.90;87.90;;;6.87;72.10;102264.81;5008290;28;19936;-79
2023/02/11 03:10:49;;;;;;;;;;;8.00;87.70;;;6.84;72.02;102251.84;5010537;28;20378;-79
2023/02/11 03:13:18;;;;;;;;;;;7.90;87.70;;;6.85;72.39;102265.94;5008921;28;20383;-79
2023/02/11 03:15:49;;;;;;;;;;;8.00;87.70;;;6.84;72.24;102267.78;5011541;28;19933;-79
2023/02/11 03:18:21;;;;;;;;;;;7.90;87.60;;;6.86;72.21;102272.91;5013852;28;19929;-78
2023/02/11 03:20:50;;;;;;;;;;;8.00;87.50;;;6.87;71.92;102286.03;5003255;28;19933;-79
2023/02/11 03:23:23;;;;;;;;;;;8.00;87.40;;;6.85;71.82;102276.56;5010280;28;19932;-79
2023/02/11 03:25:55;;;;;;;;;;;8.00;87.60;;;6.83;72.05;102289.09;5010462;28;19925;-79
2023/02/11 03:28:27;;;;;;;;;;;7.90;87.70;;;6.80;72.27;102284.94;5001109;28;19949;-79
2023/02/11 03:31:01;;;;;;;;;;;7.90;87.90;;;6.83;72.26;102294.41;5003263;28;19936;-78
2023/02/11 03:33:35;;;;;;;;;;;7.90;87.80;;;6.79;72.12;102288.56;5008524;28;19941;-79
2023/02/11 03:36:04;;;;;;;;;;;7.90;87.70;;;6.81;72.33;102296.38;5010041;28;19940;-79
2023/02/11 03:38:33;;;;;;;;;;;7.90;87.80;;;6.83;72.29;102299.72;5000048;28;19930;-79
2023/02/11 03:41:02;;;;;;;;;;;7.90;87.70;;;6.86;71.95;102300.28;5023185;23;19932;-78
2023/02/11 03:43:33;;;;;;;;;;;8.00;87.50;;;6.85;72.30;102284.50;5010797;28;19925;-77
2023/02/11 03:46:01;;;;;;;;;;;8.00;87.60;;;6.85;71.93;102279.22;5002118;28;20560;-77
2023/02/11 03:48:31;;;;;;;;;;;8.00;87.50;;;6.84;72.08;102266.94;5008731;28;19933;-77
2023/02/11 03:50:59;;;;;;;;;;;7.90;87.70;;;6.81;72.19;102267.22;5008655;28;19940;-77
2023/02/11 03:53:26;;;;;;;;;;;7.90;87.90;;;6.80;72.43;102269.03;4990453;28;19936;-77
2023/02/11 03:55:56;;;;;;;;;;;7.90;88.00;;;6.77;72.46;102271.94;4999647;28;19941;-77
2023/02/11 03:58:23;;;;;;;;;;;7.90;87.90;;;6.80;72.81;102278.81;5009642;28;20419;-77
2023/02/11 04:00:50;;;;;;;;;;;7.90;88.00;;;6.81;72.91;102273.34;4991812;28;19934;-77
2023/02/11 04:03:17;;;;;;;;;;;7.90;88.10;;;6.80;72.83;102260.25;4999713;28;19929;-77
2023/02/11 04:05:46;;;;;;;;;;;7.90;88.40;;;6.85;72.96;102250.03;4996119;28;20020;-78
2023/02/11 04:08:13;;;;;;;;;;;8.00;88.50;;;6.82;73.46;102259.09;5010863;28;20382;-77
2023/02/11 04:10:39;;;;;;;;;;;7.90;88.60;;;6.80;73.63;102266.38;4980650;28;19937;-77
2023/02/11 04:13:06;;;;;;;;;;;7.90;88.70;;;6.84;73.42;102266.94;4994445;28;19937;-77
2023/02/11 04:15:33;;;;;;;;;;;7.90;88.70;;;6.80;73.53;102269.03;5001480;28;19936;-77
2023/02/11 04:18:00;;;;;;;;;;;7.90;88.70;;;6.83;73.04;102270.53;5001941;28;19925;-77
2023/02/11 04:20:27;;;;;;;;;;;7.90;88.50;;;6.83;73.16;102279.38;4997750;28;20328;-77
2023/02/11 04:22:56;;;;;;;;;;;7.90;88.70;;;6.80;73.23;102273.50;4989621;28;19973;-77
2023/02/11 04:25:22;;;;;;;;;;;7.90;88.60;;;6.83;73.39;102281.16;5004194;28;20008;-77
2023/02/11 04:27:49;;;;;;;;;;;7.90;88.50;;;6.84;73.08;102278.38;5000880;28;19951;-77
2023/02/11 04:30:16;;;;;;;;;;;7.90;88.50;;;6.84;73.16;102278.38;5003162;28;19953;-77
2023/02/11 04:32:43;;;;;;;;;;;7.90;88.50;;;6.85;73.41;102281.88;4995991;28;19937;-77
2023/02/11 04:35:10;;;;;;;;;;;7.90;88.60;;;6.84;73.59;102280.19;4999672;28;19936;-77
2023/02/11 04:37:37;;;;;;;;;;;7.90;88.70;;;6.82;73.68;102277.66;5000264;28;19930;-78
2023/02/11 04:40:07;;;;;;;;;;;7.90;89.10;;;6.79;74.04;102287.75;5008658;28;19929;-77
2023/02/11 04:42:34;;;;;;;;;;;7.90;89.30;;;6.75;74.81;102303.09;4991630;28;20020;-77
2023/02/11 04:45:00;;;;;;;;;;;7.90;89.60;;;6.74;74.66;102311.19;4997729;28;20386;-77
2023/02/11 04:47:27;;;;;;;;;;;7.80;89.70;;;6.77;74.67;102309.06;4996095;28;19930;-77
2023/02/11 04:49:54;;;;;;;;;;;7.80;89.70;;;6.80;74.57;102300.00;5001702;28;19932;-77
2023/02/11 04:52:21;;;;;;;;;;;7.90;89.50;;;6.76;74.81;102294.16;4996019;28;20321;-76
2023/02/11 04:54:48;;;;;;;;;;;7.90;89.80;;;6.74;75.12;102290.81;4994525;28;19925;-77
2023/02/11 04:57:16;;;;;;;;;;;7.90;90.00;;;6.76;74.72;102282.72;4992261;28;19930;-77
2023/02/11 04:59:44;;;;;;;;;;;7.80;89.70;;;6.80;74.79;102279.63;5003605;28;20027;-77
2023/02/11 05:02:10;;;;;;;;;;;7.90;89.90;;;6.84;75.12;102280.19;4991667;28;19930;-77
2023/02/11 05:04:37;;;;;;;;;;;7.90;89.90;;;6.81;74.94;102291.91;4979646;28;19930;-77
2023/02/11 05:07:04;;;;;;;;;;;7.90;90.20;;;6.84;75.11;102285.50;4998134;28;20255;-76
2023/02/11 05:09:31;;;;;;;;;;;7.90;90.20;;;6.85;75.41;102277.38;4993849;28;19925;-76
2023/02/11 05:11:58;;;;;;;;;;;7.90;90.40;;;6.80;75.47;102276.16;4998837;28;20436;-76
2023/02/11 05:14:27;;;;;;;;;;;7.90;90.50;;;6.81;75.34;102280.47;4991963;28;19937;-77
2023/02/11 05:16:54;;;;;;;;;;;7.90;90.20;;;6.83;75.49;102286.44;4995967;28;19933;-76
2023/02/11 05:19:20;;;;;;;;;;;7.90;90.60;;;6.80;76.07;102292.06;4992684;28;20289;-76
2023/02/11 05:21:47;;;;;;;;;;;7.90;90.50;;;6.82;75.66;102287.44;4994428;28;19930;-76
2023/02/11 05:24:14;;;;;;;;;;;7.90;90.60;;;6.83;76.02;102297.94;5000004;28;19936;-76
2023/02/11 05:26:41;;;;;;;;;;;7.90;90.90;;;6.85;75.99;102288.00;4985237;28;19926;-76
2023/02/11 05:29:08;;;;;;;;;;;7.90;90.90;;;6.88;75.70;102286.84;5005006;28;19926;-77
2023/02/11 05:31:37;;;;;;;;;;;8.00;90.70;;;6.91;75.76;102291.91;4992731;28;19929;-76
2023/02/11 05:34:03;;;;;;;;;;;8.10;90.80;;;6.91;75.85;102281.28;4989318;28;19926;-77
2023/02/11 05:36:30;;;;;;;;;;;8.00;90.60;;;6.91;75.86;102278.63;4996680;28;19939;-77
2023/02/11 05:38:57;;;;;;;;;;;8.00;90.90;;;6.91;76.01;102266.19;5001068;28;20397;-76
2023/02/11 05:41:24;;;;;;;;;;;8.00;90.90;;;6.90;75.97;102264.53;4994899;28;19937;-77
2023/02/11 05:43:51;;;;;;;;;;;8.00;90.70;;;6.91;75.76;102265.38;4999293;28;19937;-77
2023/02/11 05:46:19;;;;;;;;;;;8.00;90.80;;;6.92;75.81;102256.44;4999832;28;19952;-76
2023/02/11 05:48:47;;;;;;;;;;;8.00;90.80;;;6.88;75.89;102266.50;5000925;28;19930;-77
2023/02/11 05:51:14;;;;;;;;;;;8.00;90.90;;;6.77;77.00;102276.41;4992655;28;19926;-77
2023/02/11 05:53:41;;;;;;;;;;;7.90;91.40;;;6.78;76.89;102268.31;4995161;28;19938;-77
2023/02/11 05:56:09;;;;;;;;;;;7.90;91.60;;;6.76;77.04;102267.63;4993621;28;19929;-77
2023/02/11 05:58:37;;;;;;;;;;;7.90;91.60;;;6.78;77.28;102268.31;4996614;28;19976;-77
2023/02/11 06:01:04;;;;;;;;;;;7.90;91.60;;;6.81;77.36;102253.94;4990478;28;20341;-77
2023/02/11 06:03:31;;;;;;;;;;;7.90;91.70;;;6.80;77.01;102261.06;5002343;28;19930;-77
2023/02/11 06:05:59;;;;;;;;;;;7.90;91.60;;;6.80;76.86;102271.69;5001544;28;20700;-77
2023/02/11 06:08:26;;;;;;;;;;;7.90;91.40;;;6.81;76.92;102268.03;5000866;28;20316;-77
2023/02/11 06:10:53;;;;;;;;;;;7.90;91.40;;;6.83;77.11;102265.22;4994475;28;19930;-77
2023/02/11 06:13:20;;;;;;;;;;;7.90;91.50;;;6.85;76.57;102263.28;4992086;28;19934;-77
2023/02/11 06:15:56;;;;;;;;;;;8.00;91.30;;;6.88;76.46;102271.81;4998342;28;19926;-76
2023/02/11 06:18:23;;;;;;;;;;;8.00;91.40;;;6.91;76.64;102271.50;4994929;28;19932;-77
2023/02/11 06:20:49;;;;;;;;;;;8.00;91.30;;;6.90;76.49;102277.78;4995500;28;19936;-77
2023/02/11 06:23:18;;;;;;;;;;;8.00;91.40;;;6.93;76.61;102274.03;4990213;28;19930;-79
2023/02/11 06:25:45;;;;;;;;;;;8.00;91.30;;;6.95;76.44;102267.59;4973470;28;19936;-78
2023/02/11 06:28:12;;;;;;;;;;;8.00;91.10;;;6.86;77.06;102273.75;5004769;28;19936;-78
2023/02/11 06:30:39;;;;;;;;;;;8.00;91.50;;;6.86;76.90;102259.66;5000729;28;19930;-78
2023/02/11 06:33:06;;;;;;;;;;;8.00;91.40;;;6.86;77.22;102275.56;5006620;28;19929;-78
2023/02/11 06:35:34;;;;;;;;;;;8.00;91.60;;;6.88;77.11;102265.66;5004859;28;19932;-78
2023/02/11 06:38:01;;;;;;;;;;;8.00;91.70;;;6.87;77.29;102271.94;5004447;28;19930;-78
2023/02/11 06:40:29;;;;;;;;;;;8.00;91.70;;;6.87;77.17;102271.94;4981964;28;20374;-78
2023/02/11 06:42:56;;;;;;;;;;;8.00;91.90;;;6.89;77.27;102272.66;5006731;28;19936;-78
2023/02/11 06:45:23;;;;;;;;;;;8.00;91.80;;;6.87;77.46;102275.41;5001008;28;20382;-78
2023/02/11 06:47:52;;;;;;;;;;;8.00;91.90;;;6.88;77.39;102277.13;4999211;28;19931;-78
2023/02/11 06:50:19;;;;;;;;;;;8.00;91.90;;;6.90;77.03;102277.78;5003155;28;19933;-78
2023/02/11 06:52:46;;;;;;;;;;;8.00;91.90;;;6.93;77.18;102274.88;4988407;28;19936;-78
2023/02/11 06:55:13;;;;;;;;;;;8.00;91.80;;;6.95;76.90;102283.50;4997585;28;19932;-78
2023/02/11 06:57:41;;;;;;;;;;;8.00;91.60;;;6.98;76.61;102293.00;4995186;28;19933;-78
2023/02/11 07:00:09;;;;;;;;;;;8.10;91.70;;;7.01;76.75;102295.38;4997099;28;19926;-76
2023/02/11 07:02:36;;;;;;;;;;;8.10;91.70;;;7.00;76.82;102296.34;4973445;28;20509;-75
2023/02/11 07:05:05;;;;;;;;;;;8.10;91.70;;;7.01;76.87;102282.09;4996434;28;20562;-75
2023/02/11 07:07:32;;;;;;;;;;;8.10;91.80;;;7.01;76.97;102295.38;4982874;28;20404;-75
2023/02/11 07:09:59;;;;;;;;;;;8.10;91.60;;;7.03;77.06;102295.22;4998842;28;19930;-76
2023/02/11 07:12:26;;;;;;;;;;;8.10;91.60;;;7.01;77.12;102287.41;4992745;28;20394;-76
2023/02/11 07:14:56;;;;;;;;;;;8.10;91.60;;;7.04;77.13;102286.28;4980680;28;19926;-76
2023/02/11 07:17:23;;;;;;;;;;;8.10;91.60;;;7.02;76.94;102294.38;4997605;28;20309;-76
2023/02/11 07:19:49;;;;;;;;;;;8.10;91.70;;;7.02;77.11;102296.19;4999270;28;20409;-76
2023/02/11 07:22:16;;;;;;;;;;;8.10;91.60;;;7.04;76.75;102292.44;4967943;28;19929;-76
2023/02/11 07:24:43;;;;;;;;;;;8.20;91.60;;;7.06;76.81;102300.25;4991800;28;19932;-76
2023/02/11 07:27:10;;;;;;;;;;;8.20;91.60;;;7.04;76.76;102308.34;5002939;28;19936;-76
2023/02/11 07:29:37;;;;;;;;;;;8.20;91.50;;;7.03;77.27;102309.34;4997327;28;19936;-75
2023/02/11 07:32:06;;;;;;;;;;;8.10;91.80;;;7.00;77.21;102314.91;4955452;28;19930;-77
2023/02/11 07:34:33;;;;;;;;;;;8.10;91.60;;;7.01;77.29;102321.88;4988377;28;19952;-76
2023/02/11 07:37:00;;;;;;;;;;;8.10;91.60;;;7.05;76.88;102322.44;4993788;28;19926;-77
2023/02/11 07:39:28;;;;;;;;;;;8.10;91.70;;;7.06;77.25;102330.25;5004223;28;19936;-76
2023/02/11 07:41:55;;;;;;;;;;;8.20;91.60;;;7.09;76.67;102332.63;5000997;28;19937;-77
2023/02/11 07:44:23;;;;;;;;;;;8.20;91.50;;;7.10;76.58;102326.34;4981383;28;20408;-76
2023/02/11 07:46:50;;;;;;;;;;;8.20;91.60;;;7.15;76.69;102324.09;4995214;28;20016;-77
2023/02/11 07:49:18;;;;;;;;;;;8.20;91.40;;;7.15;76.55;102320.63;4999051;28;19952;-77
2023/02/11 07:51:46;;;;;;;;;;;8.20;91.40;;;7.13;76.70;102322.59;5004397;28;19930;-77
2023/02/11 07:54:13;;;;;;;;;;;8.20;91.30;;;7.13;76.88;102317.28;4995371;28;20017;-77
2023/02/11 07:56:40;;;;;;;;;;;8.20;91.50;;;7.11;77.04;102324.53;5000721;28;19929;-77
2023/02/11 07:59:07;;;;;;;;;;;8.20;91.70;;;7.10;77.13;102326.34;5002487;28;20382;-76
2023/02/11 08:01:34;;;;;;;;;;;8.20;91.60;;;7.07;76.84;102313.34;4966283;28;19926;-76
2023/02/11 08:04:01;;;;;;;;;;;8.20;91.70;;;7.09;76.93;102313.22;4990887;28;19941;-77
2023/02/11 08:06:31;;;;;;;;;;;8.20;91.70;;;7.11;76.60;102320.06;4990444;28;20290;-77
2023/02/11 08:08:58;;;;;;;;;;;8.20;91.60;;;7.11;76.88;102320.06;4989433;28;20012;-77
2023/02/11 08:11:27;;;;;;;;;;;8.20;91.60;;;7.11;76.67;102317.41;4993789;28;19937;-77
2023/02/11 08:13:54;;;;;;;;;;;8.20;91.60;;;7.12;76.86;102327.03;4989569;28;20294;-76
2023/02/11 08:16:23;;;;;;;;;;;8.20;91.60;;;7.15;76.92;102316.13;5002185;28;19955;-77
2023/02/11 08:18:51;;;;;;;;;;;8.20;91.60;;;7.11;77.34;102324.53;4982179;28;19933;-77
2023/02/11 08:21:19;;;;;;;;;;;8.20;91.90;;;7.07;77.36;102323.13;4981642;28;19930;-78
2023/02/11 08:23:48;;;;;;;;;;;8.20;92.10;;;7.08;77.42;102333.63;5003464;28;20386;-77
2023/02/11 08:26:18;;;;;;;;;;;8.10;92.30;;;7.06;77.74;102340.03;4998665;28;20436;-77
2023/02/11 08:28:46;;;;;;;;;;;8.10;92.30;;;7.08;77.72;102340.75;5004718;28;19930;-77
2023/02/11 08:31:14;;;;;;;;;;;8.20;92.20;;;7.09;77.59;102347.72;4997623;28;19930;-77
2023/02/11 08:33:41;;;;;;;;;;;8.20;92.40;;;7.08;77.63;102349.53;4983873;28;20025;-77
2023/02/11 08:36:09;;;;;;;;;;;8.20;92.30;;;7.07;78.03;102347.00;4994463;28;19936;-77
2023/02/11 08:38:36;;;;;;;;;;;8.10;92.50;;;7.04;77.98;102339.34;5002098;28;19941;-77
2023/02/11 08:41:05;;;;;;;;;;;8.20;92.40;;;7.08;78.32;102344.25;4994748;28;19930;-77
2023/02/11 08:43:32;;;;;;;;;;;8.20;92.60;;;7.10;78.08;102349.38;4993932;28;19940;-77
2023/02/11 08:46:00;;;;;;;;;;;8.20;92.50;;;7.12;77.72;102356.22;4985329;28;20004;-77
2023/02/11 08:48:27;;;;;;;;;;;8.20;92.30;;;7.12;78.12;102350.91;5007863;28;19929;-77
2023/02/11 08:50:54;;;;;;;;;;;8.20;92.60;;;7.10;78.33;102344.09;4995065;28;19925;-77
2023/02/11 08:53:21;;;;;;;;;;;8.20;92.80;;;7.08;78.75;102336.28;4977293;28;19926;-77
2023/02/11 08:55:49;;;;;;;;;;;8.20;92.80;;;7.11;78.37;102338.63;4994264;28;19930;-77
2023/02/11 08:58:17;;;;;;;;;;;8.20;92.80;;;7.10;78.47;102352.03;4993723;28;20024;-77
2023/02/11 09:00:44;;;;;;;;;;;8.20;92.80;;;7.12;78.51;102355.38;4980135;28;19925;-77
2023/02/11 09:03:11;;;;;;;;;;;8.20;92.80;;;7.12;78.84;102356.22;4983994;28;19930;-77
2023/02/11 09:05:41;;;;;;;;;;;8.20;92.90;;;7.13;78.88;102360.56;4981514;28;19933;-77
2023/02/11 09:08:08;;;;;;;;;;;8.20;93.10;;;7.09;78.78;102367.13;4981468;28;19937;-77
2023/02/11 09:10:35;;;;;;;;;;;8.20;93.10;;;7.11;79.29;102366.97;4991109;28;20512;-77
2023/02/11 09:13:02;;;;;;;;;;;8.20;93.30;;;7.12;78.75;102380.09;5002548;28;19979;-76
2023/02/11 09:15:30;;;;;;;;;;;8.20;93.00;;;7.15;78.86;102379.00;4990968;28;19929;-77
2023/02/11 09:17:57;;;;;;;;;;;8.30;93.10;;;7.20;79.03;102379.41;5000114;28;19929;-77
2023/02/11 09:20:25;;;;;;;;;;;8.30;93.00;;;7.19;78.84;102381.22;5000647;28;19936;-77
2023/02/11 09:22:52;;;;;;;;;;;8.30;93.10;;;7.21;78.73;102378.41;4999545;28;19936;-77
2023/02/11 09:25:19;;;;;;;;;;;8.30;93.00;;;7.22;78.94;102391.56;4972709;28;20302;-77
2023/02/11 09:27:46;;;;;;;;;;;8.30;93.10;;;7.23;78.88;102389.75;4993031;28;19930;-77
2023/02/11 09:30:14;;;;;;;;;;;8.30;93.20;;;7.19;79.18;102389.19;4996158;28;20210;-77
2023/02/11 09:32:42;;;;;;;;;;;8.30;93.40;;;7.20;79.34;102390.84;4989215;28;19929;-77
2023/02/11 09:35:09;;;;;;;;;;;8.30;93.30;;;7.23;79.09;102393.22;4984141;28;19930;-77
2023/02/11 09:37:36;;;;;;;;;;;8.30;93.30;;;7.29;79.10;102401.59;4998855;28;19940;-77
2023/02/11 09:40:06;;;;;;;;;;;8.30;93.20;;;7.33;78.91;102397.69;4998812;28;20406;-78
2023/02/11 09:42:44;;;;;;;;;;;8.40;93.10;;;7.32;78.87;102396.00;5022407;22;20300;-84
2023/02/11 09:45:16;;;;;;;;;;;8.40;93.20;;;7.31;78.92;102395.16;4994858;28;19929;-82
2023/02/11 09:47:49;;;;;;;;;;;8.40;93.00;;;7.33;78.86;102405.66;5010519;28;19929;-85
2023/02/11 09:50:22;;;;;;;;;;;8.40;93.00;;;7.33;78.83;102400.34;5011029;28;20142;-86
2023/02/11 09:52:54;;;;;;;;;;;8.40;93.00;;;7.34;79.05;102404.66;4986172;28;19937;-82
2023/02/11 09:55:22;;;;;;;;;;;8.40;93.00;;;7.35;78.85;102401.03;5007959;28;19925;-85
2023/02/11 09:57:49;;;;;;;;;;;8.50;93.10;;;7.36;79.02;102410.66;5009881;28;19943;-79
2023/02/11 10:00:20;;;;;;;;;;;8.50;93.40;;;7.34;79.44;102404.66;5003159;28;19930;-81
2023/02/11 10:03:20;;;;;;;;;;;8.50;93.50;;;7.32;79.32;102410.13;5003186;28;20405;-84
2023/02/11 10:06:07;;;;;;;;;;;8.40;93.50;;;7.32;79.81;102410.13;5005805;28;19930;-85
2023/02/11 10:08:40;;;;;;;;;;;8.40;93.70;;;7.33;79.48;102417.09;4994913;28;19980;-85
2023/02/11 10:11:11;;;;;;;;;;;8.40;93.80;;;7.35;79.63;102414.28;5012665;28;19930;-85
2023/02/11 10:13:47;;;;;;;;;;;8.40;93.80;;;7.35;80.03;102411.63;4994269;28;19935;-83
2023/02/11 10:16:25;;;;;;;;;;;8.40;94.00;;;7.37;80.17;102415.84;5002213;28;20630;-85
2023/02/11 10:19:16;;;;;;;;;;;8.50;94.00;;;7.40;80.17;102407.56;5004668;28;19929;-84
2023/02/11 10:21:50;;;;;;;;;;;8.50;94.00;;;7.42;79.87;102418.91;5009190;28;20005;-86
2023/02/11 10:24:17;;;;;;;;;;;8.50;94.00;;;7.43;79.91;102409.97;5012357;28;20362;-85
2023/02/11 10:26:45;;;;;;;;;;;8.60;94.10;;;7.46;80.16;102419.44;4994465;28;19936;-86
2023/02/11 10:29:21;;;;;;;;;;;8.60;94.10;;;7.45;80.14;102423.06;4999005;28;19937;-87
2023/02/11 10:31:50;;;;;;;;;;;8.50;94.00;;;7.44;79.95;102424.06;5003957;28;19934;-86
2023/02/11 10:34:18;;;;;;;;;;;8.70;94.10;;;7.42;80.47;102413.59;4995019;28;19937;-86
2023/02/11 10:36:45;;;;;;;;;;;8.60;94.20;;;7.42;80.41;102421.56;5003078;28;19944;-85
2023/02/11 10:39:14;;;;;;;;;;;8.60;94.10;;;7.43;80.27;102423.22;5011500;28;20429;-84
2023/02/11 10:41:43;;;;;;;;;;;8.60;94.20;;;7.45;80.29;102428.38;4987420;28;19926;-86
2023/02/11 10:44:24;;;;;;;;;;;8.80;94.20;;;7.46;80.29;102414.13;4994180;28;20436;-84
2023/02/11 10:46:52;;;;;;;;;;;8.60;94.10;;;7.50;80.43;102418.19;5000659;28;20041;-87
2023/02/11 10:49:45;;;;;;;;;;;8.60;94.00;;;7.53;80.08;102422.38;4988126;28;19929;-82
2023/02/11 10:52:21;;;;;;;;;;;8.60;94.00;;;7.53;80.15;102425.88;5002516;28;19952;-82
2023/02/11 10:55:03;;;;;;;;;;;8.60;94.00;;;7.51;80.08;102416.34;5008209;28;19925;-82
2023/02/11 10:57:33;;;;;;;;;;;8.60;94.00;;;7.50;80.52;102423.50;5010742;28;19933;-84
2023/02/11 11:00:06;;;;;;;;;;;8.60;94.20;;;7.51;80.53;102435.78;5011615;28;20024;-84
2023/02/11 11:02:37;;;;;;;;;;;8.60;94.30;;;7.52;80.45;102437.47;5010713;28;19929;-84
2023/02/11 11:05:14;;;;;;;;;;;8.60;94.10;;;7.57;80.15;102447.66;5010328;28;20424;-84
2023/02/11 11:07:51;;;;;;;;;;;8.60;94.00;;;7.56;80.48;102446.81;4986311;28;19925;-85
2023/02/11 11:10:27;;;;;;;;;;;8.70;94.40;;;7.55;80.25;102444.31;5010234;28;20568;-85
2023/02/11 11:12:54;;;;;;;;;;;8.70;94.20;;;7.57;80.55;102443.19;5011890;28;19936;-84
2023/02/11 11:15:23;;;;;;;;;;;8.70;94.20;;;7.59;80.47;102449.19;5011186;28;19925;-84
2023/02/11 11:17:51;;;;;;;;;;;8.70;94.40;;;7.60;80.15;102457.97;5011427;28;19930;-83
2023/02/11 11:20:26;;;;;;;;;;;8.70;94.20;;;7.63;80.31;102447.09;4992245;28;19984;-82
2023/02/11 11:23:08;;;;;;;;;;;8.70;94.20;;;7.63;80.00;102457.72;5001824;28;19980;-83
2023/02/11 11:25:37;;;;;;;;;;;8.80;93.90;;;7.65;80.01;102453.91;5007085;28;19977;-83
2023/02/11 11:28:04;;;;;;;;;;;8.80;93.90;;;7.68;79.92;102461.59;5005372;28;20313;-85
2023/02/11 11:30:39;;;;;;;;;;;8.80;93.80;;;7.71;79.85;102458.69;5007357;28;20408;-83
2023/02/11 11:33:17;;;;;;;;;;;8.80;93.70;;;7.71;79.75;102455.16;5001013;28;20012;-84
2023/02/11 11:35:55;;;;;;;;;;;8.90;93.70;;;7.72;79.98;102457.69;5002513;28;20167;-83
2023/02/11 11:38:23;;;;;;;;;;;8.80;93.80;;;7.73;79.80;102456.72;5003683;28;19925;-83